Observation data for Tatum on 02/21/2019      Previous  Date  Next       Current Mesonet Observations  Soil Data  Daily Summary Page  Observations in Plain Language
KTAT 210600Z 11006KT 00/M14 A2981 RMK A01 T00011143  RH  033%=      5-min Rain = 0
KTAT 210605Z 12007KT M00/M14 A2981 RMK A01 T10021142  RH  034%=      5-min Rain = 0
KTAT 210610Z 13007KT M00/M14 A2981 RMK A01 T10031141  RH  034%=      5-min Rain = 0
KTAT 210615Z 13008KT M00/M14 A2981 RMK A01 T10011140  RH  034%=      5-min Rain = 0
KTAT 210620Z 17006KT 00/M14 A298 RMK A01 T00011140  RH  034%=      5-min Rain = 0
KTAT 210625Z 18007KT 00/M14 A298 RMK A01 T00041141  RH  033%=      5-min Rain = 0
KTAT 210630Z 19008KT 01/M14 A298 RMK A01 T00091140  RH  032%=      5-min Rain = 0
KTAT 210635Z 20008KT 02/M14 A298 RMK A01 T00171140  RH  030%=      5-min Rain = 0
KTAT 210640Z 16008KT 02/M14 A298 RMK A01 T00171138  RH  030%=      5-min Rain = 0
KTAT 210645Z 18008KT 02/M14 A298 RMK A01 T00161139  RH  030%=      5-min Rain = 0
KTAT 210650Z 18010KT 02/M14 A298 RMK A01 T00211138  RH  029%=      5-min Rain = 0
KTAT 210655Z 18009KT 03/M14 A298 RMK A01 T00251139  RH  028%=      5-min Rain = 0
KTAT 210700Z 18009KT 03/M14 A298 RMK A01 T00291139  RH  028%=      5-min Rain = 0
KTAT 210705Z 18009KT 03/M14 A2981 RMK A01 T00301139  RH  027%=      5-min Rain = 0
KTAT 210710Z 17009KT 03/M14 A2981 RMK A01 T00291138  RH  028%=      5-min Rain = 0
KTAT 210715Z 16009KT 03/M14 A2981 RMK A01 T00271139  RH  028%=      5-min Rain = 0
KTAT 210720Z 17009KT 03/M14 A2981 RMK A01 T00251138  RH  029%=      5-min Rain = 0
KTAT 210725Z 17008KT 02/M14 A2981 RMK A01 T00241138  RH  029%=      5-min Rain = 0
KTAT 210730Z 17007KT 02/M14 A2981 RMK A01 T00241138  RH  029%=      5-min Rain = 0
KTAT 210735Z 17007KT 02/M14 A2981 RMK A01 T00241136  RH  029%=      5-min Rain = 0
KTAT 210740Z 18008KT 02/M13 A2981 RMK A01 T00241134  RH  030%=      5-min Rain = 0
KTAT 210745Z 18007KT 03/M13 A2981 RMK A01 T00261132  RH  030%=      5-min Rain = 0
KTAT 210750Z 18006KT 03/M13 A2981 RMK A01 T00261129  RH  031%=      5-min Rain = 0
KTAT 210755Z 18007KT 03/M12 A2981 RMK A01 T00271124  RH  032%=      5-min Rain = 0
KTAT 210800Z 18007KT 03/M12 A2981 RMK A01 T00301118  RH  032%=      5-min Rain = 0
KTAT 210805Z 18009KT 04/M11 A2981 RMK A01 T00351108  RH  034%=      5-min Rain = 0
KTAT 210810Z 18009KT 04/M10 A2981 RMK A01 T00401104  RH  034%=      5-min Rain = 0
KTAT 210815Z 18009KT 04/M10 A2981 RMK A01 T00421101  RH  034%=      5-min Rain = 0
KTAT 210820Z 18009KT 04/M10 A2981 RMK A01 T00431099  RH  035%=      5-min Rain = 0
KTAT 210825Z 18009KT 04/M10 A2981 RMK A01 T00431098  RH  035%=      5-min Rain = 0
KTAT 210830Z 17008KT 04/M10 A2981 RMK A01 T00421096  RH  036%=      5-min Rain = 0
KTAT 210835Z 17008KT 04/M10 A2981 RMK A01 T00411095  RH  036%=      5-min Rain = 0
KTAT 210840Z 17008KT 04/M09 A2981 RMK A01 T00401090  RH  038%=      5-min Rain = 0
KTAT 210845Z 17009KT 04/M09 A2981 RMK A01 T00401086  RH  039%=      5-min Rain = 0
KTAT 210850Z 17009KT 04/M08 A2981 RMK A01 T00401082  RH  040%=      5-min Rain = 0
KTAT 210855Z 18008KT 04/M08 A2981 RMK A01 T00411079  RH  041%=      5-min Rain = 0
KTAT 210900Z 18008KT 04/M08 A2981 RMK A01 T00401077  RH  042%=      5-min Rain = 0
KTAT 210905Z 18008KT 04/M07 A2981 RMK A01 T00401074  RH  043%=      5-min Rain = 0
KTAT 210910Z 18008KT 04/M07 A2981 RMK A01 T00401070  RH  044%=      5-min Rain = 0
KTAT 210915Z 17009KT 04/M07 A2981 RMK A01 T00411066  RH  046%=      5-min Rain = 0
KTAT 210920Z 17008KT 04/M06 A2981 RMK A01 T00421063  RH  047%=      5-min Rain = 0
KTAT 210925Z 17008KT 04/M06 A2981 RMK A01 T00421060  RH  048%=      5-min Rain = 0
KTAT 210930Z 17007KT 04/M06 A2981 RMK A01 T00421057  RH  048%=      5-min Rain = 0
KTAT 210935Z 17008KT 04/M05 A2981 RMK A01 T00421054  RH  050%=      5-min Rain = 0
KTAT 210940Z 17008KT 04/M05 A298 RMK A01 T00421052  RH  051%=      5-min Rain = 0
KTAT 210945Z 17009KT 04/M05 A298 RMK A01 T00421049  RH  052%=      5-min Rain = 0
KTAT 210950Z 17008KT 04/M05 A298 RMK A01 T00431046  RH  053%=      5-min Rain = 0
KTAT 210955Z 17008KT 04/M04 A298 RMK A01 T00431042  RH  054%=      5-min Rain = 0
KTAT 211000Z 17010KT 05/M04 A298 RMK A01 T00451038  RH  055%=      5-min Rain = 0
KTAT 211005Z 17010KT 05/M04 A298 RMK A01 T00471035  RH  056%=      5-min Rain = 0
KTAT 211010Z 17011KT 05/M03 A2979 RMK A01 T00481034  RH  056%=      5-min Rain = 0
KTAT 211015Z 17011KT 05/M03 A2979 RMK A01 T00491033  RH  056%=      5-min Rain = 0
KTAT 211020Z 17010KT 05/M03 A2979 RMK A01 T00491032  RH  056%=      5-min Rain = 0
KTAT 211025Z 17010KT 05/M03 A2979 RMK A01 T00481032  RH  056%=      5-min Rain = 0
KTAT 211030Z 16010KT 05/M03 A2979 RMK A01 T00471033  RH  057%=      5-min Rain = 0
KTAT 211035Z 16010KT 05/M03 A2978 RMK A01 T00471032  RH  057%=      5-min Rain = 0
KTAT 211040Z 16009KT 05/M03 A2978 RMK A01 T00461033  RH  057%=      5-min Rain = 0
KTAT 211045Z 17009KT 04/M03 A2979 RMK A01 T00441033  RH  058%=      5-min Rain = 0
KTAT 211050Z 17008KT 04/M03 A2978 RMK A01 T00441032  RH  058%=      5-min Rain = 0
KTAT 211055Z 17008KT 04/M03 A2978 RMK A01 T00431032  RH  059%=      5-min Rain = 0
KTAT 211100Z 16008KT 04/M03 A2978 RMK A01 T00421032  RH  059%=      5-min Rain = 0
KTAT 211105Z 16007KT 04/M03 A2978 RMK A01 T00391034  RH  059%=      5-min Rain = 0
KTAT 211110Z 17007KT 04/M03 A2978 RMK A01 T00371033  RH  060%=      5-min Rain = 0
KTAT 211115Z 17007KT 04/M03 A2978 RMK A01 T00381033  RH  060%=      5-min Rain = 0
KTAT 211120Z 17008KT 04/M03 A2978 RMK A01 T00381032  RH  060%=      5-min Rain = 0
KTAT 211125Z 17007KT 04/M03 A2977 RMK A01 T00381033  RH  060%=      5-min Rain = 0
KTAT 211130Z 16007KT 04/M03 A2977 RMK A01 T00371034  RH  060%=      5-min Rain = 0
KTAT 211135Z 16007KT 03/M04 A2977 RMK A01 T00331036  RH  061%=      5-min Rain = 0
KTAT 211140Z 15007KT 03/M04 A2976 RMK A01 T00281039  RH  062%=      5-min Rain = 0
KTAT 211145Z 15007KT 02/M04 A2976 RMK A01 T00241038  RH  064%=      5-min Rain = 0
KTAT 211150Z 16007KT 03/M04 A2977 RMK A01 T00251037  RH  064%=      5-min Rain = 0
KTAT 211155Z 16007KT 02/M04 A2977 RMK A01 T00221040  RH  064%=      5-min Rain = 0
KTAT 211200Z 16008KT 02/M04 A2977 RMK A01 T00171042  RH  065%=      5-min Rain = 0
KTAT 211205Z 15008KT 02/M04 A2976 RMK A01 T00151041  RH  067%=      5-min Rain = 0
KTAT 211210Z 15009KT 02/M04 A2976 RMK A01 T00191038  RH  066%=      5-min Rain = 0
KTAT 211215Z 15009KT 02/M04 A2977 RMK A01 T00201037  RH  066%=      5-min Rain = 0
KTAT 211220Z 15009KT 02/M04 A2977 RMK A01 T00191039  RH  066%=      5-min Rain = 0
KTAT 211225Z 16008KT 02/M04 A2978 RMK A01 T00181039  RH  066%=      5-min Rain = 0
KTAT 211230Z 16009KT 02/M04 A2978 RMK A01 T00161040  RH  067%=      5-min Rain = 0
KTAT 211235Z 15009KT 02/M04 A2978 RMK A01 T00151039  RH  067%=      5-min Rain = 0
KTAT 211240Z 15009KT 02/M04 A2977 RMK A01 T00151039  RH  068%=      5-min Rain = 0
KTAT 211245Z 15009KT 02/M04 A2977 RMK A01 T00171037  RH  068%=      5-min Rain = 0
KTAT 211250Z 16009KT 02/M04 A2977 RMK A01 T00181038  RH  067%=      5-min Rain = 0
KTAT 211255Z 16009KT 02/M04 A2978 RMK A01 T00171038  RH  067%=      5-min Rain = 0
KTAT 211300Z 17008KT 02/M04 A2979 RMK A01 T00171038  RH  067%=      5-min Rain = 0
KTAT 211305Z 17009KT 02/M04 A2979 RMK A01 T00181037  RH  067%=      5-min Rain = 0
KTAT 211310Z 17009KT 02/M04 A2979 RMK A01 T00191036  RH  067%=      5-min Rain = 0
KTAT 211315Z 17008KT 02/M04 A2978 RMK A01 T00211036  RH  066%=      5-min Rain = 0
KTAT 211320Z 17008KT 02/M04 A2978 RMK A01 T00211036  RH  066%=      5-min Rain = 0
KTAT 211325Z 18007KT 02/M04 A2979 RMK A01 T00221037  RH  065%=      5-min Rain = 0
KTAT 211330Z 18006KT 02/M04 A2979 RMK A01 T00211038  RH  065%=      5-min Rain = 0
KTAT 211335Z 17006KT 02/M04 A2979 RMK A01 T00191039  RH  066%=      5-min Rain = 0
KTAT 211340Z 17007KT 02/M04 A2979 RMK A01 T00171039  RH  067%=      5-min Rain = 0
KTAT 211345Z 17006KT 02/M04 A2979 RMK A01 T00151040  RH  067%=      5-min Rain = 0
KTAT 211350Z 18006KT 01/M04 A2979 RMK A01 T00141040  RH  067%=      5-min Rain = 0
KTAT 211355Z 18006KT 01/M04 A2979 RMK A01 T00141040  RH  068%=      5-min Rain = 0
KTAT 211400Z 17006KT 01/M04 A2979 RMK A01 T00141039  RH  068%=      5-min Rain = 0
KTAT 211405Z 17007KT 02/M04 A2979 RMK A01 T00161038  RH  067%=      5-min Rain = 0
KTAT 211410Z 16007KT 02/M04 A2979 RMK A01 T00191037  RH  067%=      5-min Rain = 0
KTAT 211415Z 16007KT 02/M04 A2979 RMK A01 T00221036  RH  066%=      5-min Rain = 0
KTAT 211420Z 16007KT 03/M03 A2979 RMK A01 T00271033  RH  065%=      5-min Rain = 0
KTAT 211425Z 16008KT 03/M03 A2979 RMK A01 T00341032  RH  062%=      5-min Rain = 0
KTAT 211430Z 17009KT 04/M03 A2979 RMK A01 T00371033  RH  060%=      5-min Rain = 0
KTAT 211435Z 18008KT 04/M03 A298 RMK A01 T00391034  RH  060%=      5-min Rain = 0
KTAT 211440Z 18008KT 04/M03 A298 RMK A01 T00421032  RH  059%=      5-min Rain = 0
KTAT 211445Z 18008KT 05/M03 A298 RMK A01 T00481031  RH  057%=      5-min Rain = 0
KTAT 211450Z 18010KT 05/M03 A298 RMK A01 T00531031  RH  055%=      5-min Rain = 0
KTAT 211455Z 18012KT 06/M03 A298 RMK A01 T00581032  RH  053%=      5-min Rain = 0
KTAT 211500Z 18012KT 06/M03 A298 RMK A01 T00631031  RH  051%=      5-min Rain = 0
KTAT 211505Z 18014KT 07/M03 A298 RMK A01 T00681032  RH  049%=      5-min Rain = 0
KTAT 211510Z 18015KT 07/M03 A298 RMK A01 T00721033  RH  048%=      5-min Rain = 0
KTAT 211515Z 18015KT 08/M03 A2981 RMK A01 T00761032  RH  047%=      5-min Rain = 0
KTAT 211520Z 18017KT 08/M03 A298 RMK A01 T00781033  RH  046%=      5-min Rain = 0
KTAT 211525Z 18017KT 08/M03 A298 RMK A01 T00841031  RH  045%=      5-min Rain = 0
KTAT 211530Z 18016KT 09/M03 A298 RMK A01 T00861032  RH  043%=      5-min Rain = 0
KTAT 211535Z 17016KT 09/M03 A298 RMK A01 T00891031  RH  043%=      5-min Rain = 0
KTAT 211540Z 18017KT 09/M03 A298 RMK A01 T00941031  RH  042%=      5-min Rain = 0
KTAT 211545Z 18015KT 10/M03 A298 RMK A01 T01001031  RH  040%=      5-min Rain = 0
KTAT 211550Z 18015G20KT 10/M03 A298 RMK A01 T01031032  RH  039%=      5-min Rain = 0
KTAT 211555Z 18015KT 10/M04 A2981 RMK A01 T01001038  RH  038%=      5-min Rain = 0
KTAT 211600Z 18014KT 09/M04 A2981 RMK A01 T00901036  RH  041%=      5-min Rain = 0
KTAT 211605Z 17015KT 10/M03 A2981 RMK A01 T01001033  RH  039%=      5-min Rain = 0
KTAT 211610Z 17015KT 11/M04 A298 RMK A01 T01081037  RH  036%=      5-min Rain = 0
KTAT 211615Z 18015KT 11/M04 A298 RMK A01 T01121039  RH  035%=      5-min Rain = 0
KTAT 211620Z 18014KT 12/M04 A298 RMK A01 T01151039  RH  034%=      5-min Rain = 0
KTAT 211625Z 18014KT 12/M04 A298 RMK A01 T01211040  RH  032%=      5-min Rain = 0
KTAT 211630Z 18015KT 12/M04 A298 RMK A01 T01211044  RH  031%=      5-min Rain = 0
KTAT 211635Z 19014KT 13/M04 A298 RMK A01 T01261044  RH  030%=      5-min Rain = 0
KTAT 211640Z 18013KT 13/M04 A298 RMK A01 T01301042  RH  030%=      5-min Rain = 0
KTAT 211645Z 18013G18KT 14/M04 A298 RMK A01 T01361044  RH  028%=      5-min Rain = 0
KTAT 211650Z 17014G20KT 14/M04 A298 RMK A01 T01391043  RH  028%=      5-min Rain = 0
KTAT 211655Z 18014KT 14/M05 A298 RMK A01 T01411045  RH  027%=      5-min Rain = 0
KTAT 211700Z 18014KT 14/M05 A298 RMK A01 T01441046  RH  027%=      5-min Rain = 0
KTAT 211705Z 17014KT 15/M05 A298 RMK A01 T01471045  RH  026%=      5-min Rain = 0
KTAT 211710Z 18013KT 15/M05 A298 RMK A01 T01481048  RH  026%=      5-min Rain = 0
KTAT 211715Z 17014KT 15/M05 A298 RMK A01 T01521047  RH  025%=      5-min Rain = 0
KTAT 211720Z 18013G18KT 15/M05 A298 RMK A01 T01511049  RH  025%=      5-min Rain = 0
KTAT 211725Z 17013KT 15/M05 A298 RMK A01 T01501050  RH  025%=      5-min Rain = 0
KTAT 211730Z 18012KT 15/M05 A298 RMK A01 T01521052  RH  024%=      5-min Rain = 0
KTAT 211735Z 17012KT 16/M05 A298 RMK A01 T01571050  RH  024%=      5-min Rain = 0
KTAT 211740Z 17013KT 16/M05 A298 RMK A01 T01591054  RH  023%=      5-min Rain = 0
KTAT 211745Z 18013G18KT 16/M06 A298 RMK A01 T01601058  RH  022%=      5-min Rain = 0
KTAT 211750Z 20011G16KT 16/M06 A2979 RMK A01 T01581061  RH  022%=      5-min Rain = 0
KTAT 211755Z 19009G15KT 16/M06 A2979 RMK A01 T01591057  RH  022%=      5-min Rain = 0
KTAT 211800Z 19014KT 17/M06 A2979 RMK A01 T01671062  RH  020%=      5-min Rain = 0
KTAT 211805Z 18011KT 17/M06 A2979 RMK A01 T01661063  RH  020%=      5-min Rain = 0
KTAT 211810Z 19012KT 17/M06 A2979 RMK A01 T01691064  RH  020%=      5-min Rain = 0
KTAT 211815Z 19011G19KT 17/M07 A2979 RMK A01 T01681066  RH  019%=      5-min Rain = 0
KTAT 211820Z 18010G16KT 17/M07 A2978 RMK A01 T01701067  RH  019%=      5-min Rain = 0
KTAT 211825Z 17011G16KT 18/M07 A2978 RMK A01 T01791067  RH  018%=      5-min Rain = 0
KTAT 211830Z 18013G19KT 18/M08 A2978 RMK A01 T01771075  RH  017%=      5-min Rain = 0
KTAT 211835Z 19012KT 17/M08 A2978 RMK A01 T01711076  RH  018%=      5-min Rain = 0
KTAT 211840Z 18014G20KT 18/M08 A2978 RMK A01 T01761079  RH  017%=      5-min Rain = 0
KTAT 211845Z 19015G20KT 18/M08 A2977 RMK A01 T01761078  RH  017%=      5-min Rain = 0
KTAT 211850Z 21014G20KT 17/M08 A2977 RMK A01 T01731081  RH  017%=      5-min Rain = 0
KTAT 211855Z 18014G19KT 18/M08 A2977 RMK A01 T01771080  RH  017%=      5-min Rain = 0
KTAT 211900Z 19013G18KT 18/M08 A2977 RMK A01 T01771080  RH  016%=      5-min Rain = 0
KTAT 211905Z 18017KT 18/M08 A2977 RMK A01 T01781081  RH  016%=      5-min Rain = 0
KTAT 211910Z 20015G21KT 18/M08 A2976 RMK A01 T01791081  RH  016%=      5-min Rain = 0
KTAT 211915Z 19012G19KT 18/M08 A2976 RMK A01 T01821079  RH  016%=      5-min Rain = 0
KTAT 211920Z 20013G21KT 18/M08 A2976 RMK A01 T01831077  RH  016%=      5-min Rain = 0
KTAT 211925Z 20014G20KT 18/M08 A2975 RMK A01 T01811082  RH  016%=      5-min Rain = 0
KTAT 211930Z 19015G20KT 19/M08 A2975 RMK A01 T01871079  RH  016%=      5-min Rain = 0
KTAT 211935Z 19014G22KT 19/M08 A2975 RMK A01 T01871080  RH  016%=      5-min Rain = 0
KTAT 211940Z 20016G22KT 19/M08 A2975 RMK A01 T01871081  RH  015%=      5-min Rain = 0
KTAT 211945Z 21016G23KT 18/M08 A2974 RMK A01 T01841083  RH  015%=      5-min Rain = 0
KTAT 211950Z 20016G24KT 18/M08 A2974 RMK A01 T01841082  RH  016%=      5-min Rain = 0
KTAT 211955Z 20016G22KT 18/M08 A2974 RMK A01 T01841080  RH  016%=      5-min Rain = 0
KTAT 212000Z 22019G24KT 18/M08 A2973 RMK A01 T01831084  RH  015%=      5-min Rain = 0
KTAT 212005Z 21018G24KT 19/M08 A2973 RMK A01 T01851081  RH  016%=      5-min Rain = 0
KTAT 212010Z 20017G24KT 19/M08 A2973 RMK A01 T01861083  RH  015%=      5-min Rain = 0
KTAT 212015Z 21019G25KT 19/M08 A2973 RMK A01 T01851083  RH  015%=      5-min Rain = 0
KTAT 212020Z 21016G21KT 18/M08 A2972 RMK A01 T01841083  RH  016%=      5-min Rain = 0
KTAT 212025Z 20014G23KT 18/M08 A2972 RMK A01 T01841081  RH  016%=      5-min Rain = 0
KTAT 212030Z 21018G25KT 19/M08 A2972 RMK A01 T01871082  RH  015%=      5-min Rain = 0
KTAT 212035Z 21016G23KT 19/M08 A2972 RMK A01 T01891084  RH  015%=      5-min Rain = 0
KTAT 212040Z 21018G23KT 19/M09 A2972 RMK A01 T01901086  RH  015%=      5-min Rain = 0
KTAT 212045Z 21017G25KT 19/M09 A2972 RMK A01 T01911085  RH  015%=      5-min Rain = 0
KTAT 212050Z 21017G24KT 19/M09 A2972 RMK A01 T01911086  RH  014%=      5-min Rain = 0
KTAT 212055Z 20013G20KT 19/M09 A2971 RMK A01 T01891085  RH  015%=      5-min Rain = 0
KTAT 212100Z 20017G25KT 19/M09 A2971 RMK A01 T01891087  RH  014%=      5-min Rain = 0
KTAT 212105Z 20017G25KT 19/M09 A2971 RMK A01 T01911085  RH  015%=      5-min Rain = 0
KTAT 212110Z 22016KT 19/M09 A2971 RMK A01 T01851088  RH  015%=      5-min Rain = 0
KTAT 212115Z 21015G21KT 19/M08 A2971 RMK A01 T01851084  RH  015%=      5-min Rain = 0
KTAT 212120Z 20016G23KT 20/M08 A2971 RMK A01 T01951082  RH  014%=      5-min Rain = 0
KTAT 212125Z 20017G24KT 19/M09 A2971 RMK A01 T01921085  RH  014%=      5-min Rain = 0
KTAT 212130Z 19013G18KT 19/M08 A2971 RMK A01 T01931084  RH  014%=      5-min Rain = 0
KTAT 212135Z 20016G23KT 18/M09 A297 RMK A01 T01831089  RH  015%=      5-min Rain = 0
KTAT 212140Z 21015KT 17/M09 A2971 RMK A01 T01721090  RH  016%=      5-min Rain = 0
KTAT 212145Z 21012KT 18/M08 A297 RMK A01 T01811083  RH  016%=      5-min Rain = 0
KTAT 212150Z 20016KT 19/M08 A297 RMK A01 T01921082  RH  015%=      5-min Rain = 0
KTAT 212155Z 21018G27KT 19/M09 A297 RMK A01 T01911087  RH  014%=      5-min Rain = 0
KTAT 212200Z 20015G21KT 19/M09 A297 RMK A01 T01871086  RH  015%=      5-min Rain = 0
KTAT 212205Z 19015G20KT 18/M09 A297 RMK A01 T01811087  RH  015%=      5-min Rain = 0
KTAT 212210Z 18015G25KT 19/M08 A297 RMK A01 T01901081  RH  015%=      5-min Rain = 0
KTAT 212215Z 19018G24KT 18/M09 A297 RMK A01 T01831088  RH  015%=      5-min Rain = 0
KTAT 212220Z 19013G18KT 19/M08 A297 RMK A01 T01881083  RH  015%=      5-min Rain = 0
KTAT 212225Z 20015G21KT 19/M09 A297 RMK A01 T01881088  RH  015%=      5-min Rain = 0
KTAT 212230Z 21020G27KT 19/M09 A297 RMK A01 T01861089  RH  015%=      5-min Rain = 0
KTAT 212235Z 20017G24KT 19/M09 A2971 RMK A01 T01861089  RH  015%=      5-min Rain = 0
KTAT 212240Z 20014G19KT 19/M09 A2971 RMK A01 T01871088  RH  015%=      5-min Rain = 0
KTAT 212245Z 20012G19KT 18/M09 A2971 RMK A01 T01831090  RH  015%=      5-min Rain = 0
KTAT 212250Z 19014G20KT 18/M09 A2971 RMK A01 T01821088  RH  015%=      5-min Rain = 0
KTAT 212255Z 19018G23KT 18/M09 A2971 RMK A01 T01781090  RH  015%=      5-min Rain = 0
KTAT 212300Z 21020G25KT 18/M09 A2971 RMK A01 T01841089  RH  015%=      5-min Rain = 0
KTAT 212305Z 22016KT 18/M09 A2971 RMK A01 T01821089  RH  015%=      5-min Rain = 0
KTAT 212310Z 20016G21KT 18/M09 A2971 RMK A01 T01821089  RH  015%=      5-min Rain = 0
KTAT 212315Z 20015KT 18/M09 A2971 RMK A01 T01831088  RH  015%=      5-min Rain = 0
KTAT 212320Z 22015G20KT 18/M09 A2971 RMK A01 T01821088  RH  015%=      5-min Rain = 0
KTAT 212325Z 22015KT 18/M09 A2971 RMK A01 T01811088  RH  015%=      5-min Rain = 0
KTAT 212330Z 22012KT 18/M09 A2971 RMK A01 T01801087  RH  015%=      5-min Rain = 0
KTAT 212335Z 21012G18KT 18/M09 A2971 RMK A01 T01801085  RH  016%=      5-min Rain = 0
KTAT 212340Z 22011KT 18/M09 A2971 RMK A01 T01791088  RH  015%=      5-min Rain = 0
KTAT 212345Z 22011KT 18/M09 A2971 RMK A01 T01791091  RH  015%=      5-min Rain = 0
KTAT 212350Z 23013KT 18/M09 A2971 RMK A01 T01761093  RH  015%=      5-min Rain = 0
KTAT 212355Z 22013KT 17/M10 A2971 RMK A01 T01731096  RH  015%=      5-min Rain = 0
KTAT 220000Z 22012KT 17/M10 A2971 RMK A01 T01721101  RH  014%=      5-min Rain = 0
KTAT 220005Z 22012KT 17/M10 A2972 RMK A01 T01701101  RH  015%=      5-min Rain = 0
KTAT 220010Z 22012KT 17/M10 A2971 RMK A01 T01681102  RH  015%=      5-min Rain = 0
KTAT 220015Z 22011KT 16/M10 A2972 RMK A01 T01601103  RH  015%=      5-min Rain = 0
KTAT 220020Z 22010KT 16/M10 A2972 RMK A01 T01561102  RH  016%=      5-min Rain = 0
KTAT 220025Z 22008KT 15/M10 A2972 RMK A01 T01491104  RH  016%=      5-min Rain = 0
KTAT 220030Z 22007KT 14/M10 A2972 RMK A01 T01421101  RH  017%=      5-min Rain = 0
KTAT 220035Z 22007KT 14/M10 A2973 RMK A01 T01361097  RH  019%=      5-min Rain = 0
KTAT 220040Z 22007KT 13/M10 A2973 RMK A01 T01301097  RH  020%=      5-min Rain = 0
KTAT 220045Z 23006KT 13/M10 A2973 RMK A01 T01261096  RH  020%=      5-min Rain = 0
KTAT 220050Z 22006KT 12/M10 A2973 RMK A01 T01241095  RH  021%=      5-min Rain = 0
KTAT 220055Z 22005KT 12/M10 A2973 RMK A01 T01221095  RH  021%=      5-min Rain = 0
KTAT 220100Z 22005KT 12/M10 A2973 RMK A01 T01191095  RH  021%=      5-min Rain = 0
KTAT 220105Z 22005KT 12/M09 A2973 RMK A01 T01191094  RH  022%=      5-min Rain = 0
KTAT 220110Z 22006KT 12/M09 A2974 RMK A01 T01161094  RH  022%=      5-min Rain = 0
KTAT 220115Z 23006KT 12/M09 A2974 RMK A01 T01191093  RH  022%=      5-min Rain = 0
KTAT 220120Z 22005KT 12/M09 A2974 RMK A01 T01201093  RH  022%=      5-min Rain = 0
KTAT 220125Z 23004KT 12/M09 A2974 RMK A01 T01181092  RH  022%=      5-min Rain = 0
KTAT 220130Z 25004KT 12/M09 A2974 RMK A01 T01161091  RH  023%=      5-min Rain = 0
KTAT 220135Z 26004KT 11/M09 A2974 RMK A01 T01111090  RH  024%=      5-min Rain = 0
KTAT 220140Z 14003KT 11/M09 A2975 RMK A01 T01061088  RH  025%=      5-min Rain = 0
KTAT 220145Z 11004KT 10/M09 A2975 RMK A01 T01031088  RH  025%=      5-min Rain = 0
KTAT 220150Z 10005KT 10/M09 A2975 RMK A01 T01021086  RH  026%=      5-min Rain = 0
KTAT 220155Z 09011G19KT 10/M08 A2975 RMK A01 T01021084  RH  026%=      5-min Rain = 0
KTAT 220200Z 11014G22KT 12/M04 A2976 RMK A01 T01171041  RH  033%=      5-min Rain = 0
KTAT 220205Z 12021G31KT 13/M03 A2975 RMK A01 T01301030  RH  033%=      5-min Rain = 0
KTAT 220210Z 12015G22KT 13/M03 A2976 RMK A01 T01291029  RH  033%=      5-min Rain = 0
KTAT 220215Z 13014G22KT 12/M03 A2977 RMK A01 T01241028  RH  035%=      5-min Rain = 0
KTAT 220220Z 13016G21KT 12/M02 A2977 RMK A01 T01231023  RH  036%=      5-min Rain = 0
KTAT 220225Z 13016KT 12/M02 A2977 RMK A01 T01211020  RH  038%=      5-min Rain = 0
KTAT 220230Z 12014G20KT 12/M02 A2977 RMK A01 T01171018  RH  039%=      5-min Rain = 0
KTAT 220235Z 12013KT 11/M02 A2977 RMK A01 T01131016  RH  041%=      5-min Rain = 0
KTAT 220240Z 12013KT 11/M02 A2978 RMK A01 T01101015  RH  042%=      5-min Rain = 0
KTAT 220245Z 12014KT 11/M01 A2978 RMK A01 T01071012  RH  044%=      5-min Rain = 0
KTAT 220250Z 12013KT 11/M01 A2978 RMK A01 T01051011  RH  045%=      5-min Rain = 0
KTAT 220255Z 12013KT 10/M01 A2978 RMK A01 T01011010  RH  046%=      5-min Rain = 0
KTAT 220300Z 12013KT 10/M01 A2978 RMK A01 T00981009  RH  048%=      5-min Rain = 0
KTAT 220305Z 12011KT 09/M01 A2978 RMK A01 T00941009  RH  049%=      5-min Rain = 0
KTAT 220310Z 12010KT 09/M01 A2978 RMK A01 T00891009  RH  051%=      5-min Rain = 0
KTAT 220315Z 12011KT 09/M01 A2978 RMK A01 T00871007  RH  052%=      5-min Rain = 0
KTAT 220320Z 12011KT 09/M01 A2978 RMK A01 T00861006  RH  053%=      5-min Rain = 0
KTAT 220325Z 12011KT 08/M01 A2978 RMK A01 T00841006  RH  054%=      5-min Rain = 0
KTAT 220330Z 12011KT 08/M01 A2978 RMK A01 T00821006  RH  054%=      5-min Rain = 0
KTAT 220335Z 12012KT 08/M01 A2979 RMK A01 T00801006  RH  055%=      5-min Rain = 0
KTAT 220340Z 12011KT 08/M01 A2979 RMK A01 T00781007  RH  056%=      5-min Rain = 0
KTAT 220345Z 12011KT 08/M01 A2979 RMK A01 T00761007  RH  057%=      5-min Rain = 0
KTAT 220350Z 12011KT 08/M01 A2979 RMK A01 T00761006  RH  057%=      5-min Rain = 0
KTAT 220355Z 12011KT 08/M01 A2979 RMK A01 T00771005  RH  057%=      5-min Rain = 0
KTAT 220400Z 12011KT 08/M01 A298 RMK A01 T00761006  RH  057%=      5-min Rain = 0
KTAT 220405Z 12012KT 08/M01 A298 RMK A01 T00751006  RH  057%=      5-min Rain = 0
KTAT 220410Z 13012KT 08/M01 A298 RMK A01 T00751005  RH  057%=      5-min Rain = 0
KTAT 220415Z 12012KT 08/M00 A298 RMK A01 T00751004  RH  058%=      5-min Rain = 0
KTAT 220420Z 12012KT 08/M00 A298 RMK A01 T00751003  RH  058%=      5-min Rain = 0
KTAT 220425Z 12013KT 08/M00 A298 RMK A01 T00761002  RH  059%=      5-min Rain = 0
KTAT 220430Z 13013KT 07/M00 A298 RMK A01 T00741002  RH  059%=      5-min Rain = 0
KTAT 220435Z 13013KT 07/M00 A298 RMK A01 T00721003  RH  060%=      5-min Rain = 0
KTAT 220440Z 13013KT 07/M00 A298 RMK A01 T00691003  RH  061%=      5-min Rain = 0
KTAT 220445Z 13012KT 07/M00 A298 RMK A01 T00661003  RH  062%=      5-min Rain = 0
KTAT 220450Z 13013KT 06/M00 A2981 RMK A01 T00631003  RH  063%=      5-min Rain = 0
KTAT 220455Z 13012KT 06/M00 A2981 RMK A01 T00621003  RH  064%=      5-min Rain = 0
KTAT 220500Z 13013KT 06/M00 A2981 RMK A01 T00611003  RH  064%=      5-min Rain = 0
KTAT 220505Z 13013KT 06/M00 A2981 RMK A01 T00611002  RH  065%=      5-min Rain = 0
KTAT 220510Z 13013KT 06/M00 A2981 RMK A01 T00601002  RH  065%=      5-min Rain = 0
KTAT 220515Z 13012KT 06/M00 A2981 RMK A01 T00601001  RH  066%=      5-min Rain = 0
KTAT 220520Z 13013KT 06/00 A2981 RMK A01 T00600001  RH  066%=      5-min Rain = 0
KTAT 220525Z 13013KT 06/00 A2981 RMK A01 T00610001  RH  066%=      5-min Rain = 0
KTAT 220530Z 13013KT 06/00 A2981 RMK A01 T00600001  RH  067%=      5-min Rain = 0
KTAT 220535Z 12012KT 06/00 A2981 RMK A01 T00590001  RH  067%=      5-min Rain = 0
KTAT 220540Z 12012KT 06/00 A2982 RMK A01 T00580001  RH  067%=      5-min Rain = 0
KTAT 220545Z 11011KT 06/00 A2982 RMK A01 T005600-0  RH  068%=      5-min Rain = 0
KTAT 220550Z 11011KT 05/M00 A2982 RMK A01 T00531001  RH  069%=      5-min Rain = 0
KTAT 220555Z 12011KT 05/M00 A2982 RMK A01 T00521001  RH  069%=      5-min Rain = 0

Page generated in 0.0095 seconds.